Time;durP1;ratioP1;P1;durP2;ratioP2;P2;SDS_P1;SDS_P2;PMS_P1;PMS_P2;Temp;Humidity;BMP_temperature;BMP_pressure;BME280_temperature;BME280_humidity;BME280_pressure;Samples;Min_cycle;Max_cycle;Signal;HPM_P1;HPM_P2
2024/03/19 00:01:35;;;;;;;2.67;1.07;;;;;;;;;;5007937;28;20431;-83
2024/03/19 00:04:00;;;;;;;2.40;0.70;;;;;;;;;;5014971;28;20477;-80
2024/03/19 00:06:26;;;;;;;2.10;0.50;;;;;;;;;;5016368;28;20410;-77
2024/03/19 00:08:52;;;;;;;1.33;1.07;;;;;;;;;;5015041;28;20424;-78
2024/03/19 00:11:22;;;;;;;1.50;0.63;;;;;;;;;;5015825;28;20410;-78
2024/03/19 00:13:48;;;;;;;2.63;0.50;;;;;;;;;;5016080;28;20434;-78
2024/03/19 00:16:14;;;;;;;6.50;0.60;;;;;;;;;;5016150;28;20410;-77
2024/03/19 00:18:40;;;;;;;1.43;0.87;;;;;;;;;;5014133;28;20429;-80
2024/03/19 00:21:06;;;;;;;2.50;0.90;;;;;;;;;;5004345;28;20440;-76
2024/03/19 00:23:33;;;;;;;1.10;0.40;;;;;;;;;;4995967;28;20575;-77
2024/03/19 00:25:59;;;;;;;1.83;0.97;;;;;;;;;;4994606;28;20958;-77
2024/03/19 00:28:25;;;;;;;2.50;0.93;;;;;;;;;;4996930;28;20451;-76
2024/03/19 00:30:51;;;;;;;2.57;1.20;;;;;;;;;;4994803;28;20411;-78
2024/03/19 00:33:17;;;;;;;1.97;0.97;;;;;;;;;;4994932;28;20461;-77
2024/03/19 00:35:44;;;;;;;4.43;1.13;;;;;;;;;;4995985;28;20503;-77
2024/03/19 00:38:10;;;;;;;3.13;0.90;;;;;;;;;;4995645;28;20414;-86
2024/03/19 00:40:36;;;;;;;1.97;1.13;;;;;;;;;;4994769;28;20915;-76
2024/03/19 00:43:05;;;;;;;1.70;0.70;;;;;;;;;;4995688;28;21050;-82
2024/03/19 00:45:31;;;;;;;1.43;1.23;;;;;;;;;;4996146;28;20412;-77
2024/03/19 00:47:57;;;;;;;3.63;1.20;;;;;;;;;;5006586;28;20423;-76
2024/03/19 00:50:23;;;;;;;2.43;1.23;;;;;;;;;;4994996;28;20892;-83
2024/03/19 00:52:49;;;;;;;2.73;1.97;;;;;;;;;;4995261;28;20434;-86
2024/03/19 00:55:15;;;;;;;2.93;1.63;;;;;;;;;;4996167;28;20936;-88
2024/03/19 00:57:41;;;;;;;2.70;1.13;;;;;;;;;;4996482;28;20423;-82
2024/03/19 01:00:14;;;;;;;2.73;1.90;;;;;;;;;;4995657;28;20413;-77
2024/03/19 01:02:43;;;;;;;2.43;2.23;;;;;;;;;;5004769;28;20495;-77
2024/03/19 01:05:09;;;;;;;4.83;2.03;;;;;;;;;;5014643;28;20508;-77
2024/03/19 01:07:38;;;;;;;7.70;2.40;;;;;;;;;;5013905;28;20922;-77
2024/03/19 01:10:07;;;;;;;3.60;2.00;;;;;;;;;;5014750;28;20409;-77
2024/03/19 01:12:33;;;;;;;3.97;1.63;;;;;;;;;;5015074;28;20410;-77
2024/03/19 01:14:59;;;;;;;3.73;1.67;;;;;;;;;;5014905;28;20768;-79
2024/03/19 01:17:25;;;;;;;3.20;1.63;;;;;;;;;;5014769;28;20505;-83
2024/03/19 01:19:51;;;;;;;5.33;1.63;;;;;;;;;;5014732;28;20505;-78
2024/03/19 01:22:17;;;;;;;3.10;2.00;;;;;;;;;;5014881;28;20478;-78
2024/03/19 01:24:43;;;;;;;2.73;1.03;;;;;;;;;;5014538;28;20457;-76
2024/03/19 01:27:09;;;;;;;5.20;1.63;;;;;;;;;;5014712;28;20752;-78
2024/03/19 01:29:37;;;;;;;3.10;1.80;;;;;;;;;;5014799;28;20422;-77
2024/03/19 01:32:03;;;;;;;3.67;2.33;;;;;;;;;;5014818;28;20773;-78
2024/03/19 01:34:29;;;;;;;2.57;2.10;;;;;;;;;;5014528;28;20816;-77
2024/03/19 01:36:55;;;;;;;3.90;1.57;;;;;;;;;;5014540;28;20411;-78
2024/03/19 01:39:22;;;;;;;2.03;1.73;;;;;;;;;;5014337;28;20414;-77
2024/03/19 01:41:49;;;;;;;5.73;2.33;;;;;;;;;;5013490;28;20979;-77
2024/03/19 01:44:18;;;;;;;4.20;2.23;;;;;;;;;;5014448;28;20436;-78
2024/03/19 01:46:44;;;;;;;5.00;2.20;;;;;;;;;;5014349;28;20444;-78
2024/03/19 01:49:11;;;;;;;4.53;1.57;;;;;;;;;;5014017;28;20446;-78
2024/03/19 01:51:37;;;;;;;4.10;1.80;;;;;;;;;;5014283;28;20413;-77
2024/03/19 01:54:03;;;;;;;3.60;2.13;;;;;;;;;;5013841;28;20426;-77
2024/03/19 01:56:29;;;;;;;4.10;2.20;;;;;;;;;;5014139;28;20429;-78
2024/03/19 01:58:57;;;;;;;3.90;2.50;;;;;;;;;;5013982;28;20414;-77
2024/03/19 02:01:23;;;;;;;4.33;2.23;;;;;;;;;;5014086;28;20413;-77
2024/03/19 02:03:49;;;;;;;10.57;1.73;;;;;;;;;;5012690;28;20488;-77
2024/03/19 02:06:16;;;;;;;4.60;1.83;;;;;;;;;;5014008;28;20418;-77
2024/03/19 02:09:02;;;;;;;4.87;2.30;;;;;;;;;;5013599;28;20409;-81
2024/03/19 02:11:28;;;;;;;2.50;1.90;;;;;;;;;;5013924;28;20494;-77
2024/03/19 02:13:54;;;;;;;2.60;1.70;;;;;;;;;;5013633;28;20512;-76
2024/03/19 02:16:20;;;;;;;2.73;1.70;;;;;;;;;;5013811;28;20975;-77
2024/03/19 02:18:46;;;;;;;3.17;1.83;;;;;;;;;;5013411;28;20906;-77
2024/03/19 02:21:12;;;;;;;2.50;1.47;;;;;;;;;;4995397;28;20477;-77
2024/03/19 02:23:38;;;;;;;6.20;1.73;;;;;;;;;;4993759;28;20545;-77
2024/03/19 02:26:04;;;;;;;3.63;1.80;;;;;;;;;;4995050;28;20402;-87
2024/03/19 02:28:30;;;;;;;2.97;1.90;;;;;;;;;;4995012;28;20442;-78
2024/03/19 02:30:56;;;;;;;5.43;1.90;;;;;;;;;;4994700;28;20414;-77
2024/03/19 02:33:22;;;;;;;3.30;2.70;;;;;;;;;;4995066;28;20898;-89
2024/03/19 02:35:48;;;;;;;3.07;1.80;;;;;;;;;;4994135;28;20427;-86
2024/03/19 02:38:14;;;;;;;3.80;1.83;;;;;;;;;;4994737;28;20407;-86
2024/03/19 02:40:39;;;;;;;2.73;1.00;;;;;;;;;;4994234;28;20779;-78
2024/03/19 02:43:05;;;;;;;1.73;0.97;;;;;;;;;;4994643;28;20467;-86
2024/03/19 02:45:31;;;;;;;5.07;2.50;;;;;;;;;;5011073;28;20418;-88
2024/03/19 02:47:57;;;;;;;2.93;1.90;;;;;;;;;;5014360;28;20422;-86
2024/03/19 02:50:23;;;;;;;2.70;1.63;;;;;;;;;;5014251;28;20419;-84
2024/03/19 02:52:49;;;;;;;2.60;2.03;;;;;;;;;;5014130;28;20484;-89
2024/03/19 02:55:15;;;;;;;3.20;2.20;;;;;;;;;;5013603;28;20468;-83
2024/03/19 02:57:41;;;;;;;4.60;1.97;;;;;;;;;;5013894;28;20481;-87
2024/03/19 03:00:09;;;;;;;5.40;2.43;;;;;;;;;;5013405;28;20428;-82
2024/03/19 03:02:35;;;;;;;2.93;2.13;;;;;;;;;;5014641;28;20478;-85
2024/03/19 03:05:01;;;;;;;3.57;1.17;;;;;;;;;;5014396;28;20412;-83
2024/03/19 03:07:27;;;;;;;3.57;2.00;;;;;;;;;;5014200;28;20517;-81
2024/03/19 03:09:52;;;;;;;4.07;2.30;;;;;;;;;;5013656;28;20422;-86
2024/03/19 03:12:18;;;;;;;3.30;2.40;;;;;;;;;;5013653;28;20467;-79
2024/03/19 03:14:44;;;;;;;4.10;2.47;;;;;;;;;;5013778;28;20469;-85
2024/03/19 03:17:10;;;;;;;2.30;1.63;;;;;;;;;;5014058;28;20505;-87
2024/03/19 03:19:36;;;;;;;5.03;2.70;;;;;;;;;;5013920;28;20426;-76
2024/03/19 03:22:02;;;;;;;2.80;2.10;;;;;;;;;;5013761;28;20442;-87
2024/03/19 03:24:30;;;;;;;3.30;2.60;;;;;;;;;;5014117;28;20427;-79
2024/03/19 03:26:56;;;;;;;4.03;3.00;;;;;;;;;;5014373;28;20442;-76
2024/03/19 03:29:22;;;;;;;3.27;2.50;;;;;;;;;;5013615;28;20822;-88
2024/03/19 03:31:49;;;;;;;2.83;2.50;;;;;;;;;;5014137;28;20414;-76
2024/03/19 03:34:15;;;;;;;3.53;2.20;;;;;;;;;;5013990;28;20422;-79
2024/03/19 03:36:41;;;;;;;2.93;2.30;;;;;;;;;;5013792;28;20420;-84
2024/03/19 03:39:07;;;;;;;5.63;3.00;;;;;;;;;;5013380;28;20452;-85
2024/03/19 03:41:33;;;;;;;4.83;2.40;;;;;;;;;;5013606;28;20473;-76
2024/03/19 03:43:59;;;;;;;2.00;1.60;;;;;;;;;;5013611;28;20479;-88
2024/03/19 03:46:25;;;;;;;3.93;2.90;;;;;;;;;;5013778;28;20973;-84
2024/03/19 03:48:51;;;;;;;3.37;2.30;;;;;;;;;;5013629;28;20412;-78
2024/03/19 03:51:16;;;;;;;5.63;2.40;;;;;;;;;;5012340;28;20415;-82
2024/03/19 03:53:42;;;;;;;3.20;2.40;;;;;;;;;;5013390;28;20415;-88
2024/03/19 03:56:08;;;;;;;3.60;2.33;;;;;;;;;;5013472;28;20414;-81
2024/03/19 03:58:34;;;;;;;3.60;2.57;;;;;;;;;;5013443;28;20514;-81
2024/03/19 04:01:03;;;;;;;3.60;2.97;;;;;;;;;;5013199;28;20410;-77
2024/03/19 04:03:31;;;;;;;3.60;2.87;;;;;;;;;;5013104;28;20458;-81
2024/03/19 04:05:57;;;;;;;6.70;2.97;;;;;;;;;;5012850;28;20402;-79
2024/03/19 04:08:23;;;;;;;2.80;2.17;;;;;;;;;;5012706;28;20470;-76
2024/03/19 04:10:49;;;;;;;5.10;2.50;;;;;;;;;;5012914;28;20473;-77
2024/03/19 04:13:15;;;;;;;2.87;2.07;;;;;;;;;;5016299;28;20902;-79
2024/03/19 04:15:41;;;;;;;4.10;2.43;;;;;;;;;;5016363;28;20403;-76
2024/03/19 04:18:07;;;;;;;3.70;2.33;;;;;;;;;;5016392;28;20465;-76
2024/03/19 04:20:33;;;;;;;6.27;3.77;;;;;;;;;;5016178;28;20502;-76
2024/03/19 04:22:59;;;;;;;6.60;2.60;;;;;;;;;;5016054;28;20576;-76
2024/03/19 04:25:27;;;;;;;2.73;2.10;;;;;;;;;;5015769;28;20402;-77
2024/03/19 04:27:52;;;;;;;3.87;2.20;;;;;;;;;;5016141;28;20893;-77
2024/03/19 04:30:18;;;;;;;4.60;2.57;;;;;;;;;;5016143;28;20414;-78
2024/03/19 04:32:44;;;;;;;4.30;1.90;;;;;;;;;;5014899;28;20431;-78
2024/03/19 04:35:10;;;;;;;4.03;3.00;;;;;;;;;;5015966;28;20960;-78
2024/03/19 04:37:37;;;;;;;3.00;2.53;;;;;;;;;;5015860;28;20426;-80
2024/03/19 04:40:04;;;;;;;2.40;2.20;;;;;;;;;;5015493;28;20410;-76
2024/03/19 04:42:30;;;;;;;5.90;2.17;;;;;;;;;;5015807;28;20478;-77
2024/03/19 04:44:56;;;;;;;7.90;2.83;;;;;;;;;;5015928;28;20510;-76
2024/03/19 04:47:22;;;;;;;2.13;1.67;;;;;;;;;;5015508;28;20868;-77
2024/03/19 04:49:48;;;;;;;6.70;2.83;;;;;;;;;;5015795;28;20967;-76
2024/03/19 04:52:14;;;;;;;4.07;2.77;;;;;;;;;;5015660;28;20418;-80
2024/03/19 04:54:40;;;;;;;5.60;2.10;;;;;;;;;;5015283;28;20414;-79
2024/03/19 04:57:06;;;;;;;3.80;2.30;;;;;;;;;;5015528;28;20409;-78
2024/03/19 04:59:32;;;;;;;5.83;3.10;;;;;;;;;;5015176;28;20422;-84
2024/03/19 05:01:57;;;;;;;3.80;2.43;;;;;;;;;;5015514;28;20414;-77
2024/03/19 05:04:23;;;;;;;6.90;3.13;;;;;;;;;;5016378;28;20426;-86
2024/03/19 05:06:49;;;;;;;2.07;1.87;;;;;;;;;;5014323;28;20820;-86
2024/03/19 05:09:15;;;;;;;2.70;2.30;;;;;;;;;;5015222;28;20426;-78
2024/03/19 05:11:42;;;;;;;5.90;3.10;;;;;;;;;;5015573;28;20442;-76
2024/03/19 05:14:07;;;;;;;3.67;2.10;;;;;;;;;;5015105;28;20419;-84
2024/03/19 05:16:33;;;;;;;4.63;2.10;;;;;;;;;;5014061;28;20433;-80
2024/03/19 05:19:00;;;;;;;3.60;2.67;;;;;;;;;;5015249;28;20450;-81
2024/03/19 05:21:26;;;;;;;4.03;2.73;;;;;;;;;;5015249;28;20418;-83
2024/03/19 05:23:52;;;;;;;2.00;1.90;;;;;;;;;;5013844;28;20616;-77
2024/03/19 05:26:18;;;;;;;5.17;2.47;;;;;;;;;;5015209;28;20493;-79
2024/03/19 05:28:44;;;;;;;5.60;1.90;;;;;;;;;;5014969;28;20769;-78
2024/03/19 05:31:30;;;;;;;3.33;2.97;;;;;;;;;;5015200;28;20464;-87
2024/03/19 05:33:56;;;;;;;3.20;1.80;;;;;;;;;;5015167;28;20418;-88
2024/03/19 05:36:23;;;;;;;6.10;2.40;;;;;;;;;;5015171;28;20406;-86
2024/03/19 05:38:49;;;;;;;4.27;2.50;;;;;;;;;;5014854;28;20404;-88
2024/03/19 05:41:15;;;;;;;3.63;1.53;;;;;;;;;;5015090;28;20498;-81
2024/03/19 05:43:42;;;;;;;3.87;2.07;;;;;;;;;;5015290;28;21271;-89
2024/03/19 05:46:08;;;;;;;3.20;2.23;;;;;;;;;;5015821;28;20403;-82
2024/03/19 05:48:35;;;;;;;5.60;2.70;;;;;;;;;;5015255;28;20534;-88
2024/03/19 05:51:02;;;;;;;5.50;1.67;;;;;;;;;;5015381;28;20501;-89
2024/03/19 05:53:28;;;;;;;2.53;2.33;;;;;;;;;;5014073;28;20417;-81
2024/03/19 05:55:54;;;;;;;2.53;1.83;;;;;;;;;;5015051;28;20766;-85
2024/03/19 05:58:20;;;;;;;4.10;3.00;;;;;;;;;;5015135;28;20493;-89
2024/03/19 06:00:45;;;;;;;5.13;1.80;;;;;;;;;;5015188;28;20415;-86
2024/03/19 06:03:11;;;;;;;4.77;2.37;;;;;;;;;;5015399;28;20961;-87
2024/03/19 06:05:37;;;;;;;3.07;1.90;;;;;;;;;;5015287;28;20410;-89
2024/03/19 06:08:05;;;;;;;3.83;2.80;;;;;;;;;;5013939;28;20422;-89
2024/03/19 06:10:32;;;;;;;5.13;2.60;;;;;;;;;;5014499;28;20402;-86
2024/03/19 06:12:57;;;;;;;2.93;2.13;;;;;;;;;;5014637;28;20828;-87
2024/03/19 06:15:23;;;;;;;4.50;2.73;;;;;;;;;;5014595;28;20408;-88
2024/03/19 06:17:49;;;;;;;3.87;3.47;;;;;;;;;;5014722;28;20453;-85
2024/03/19 06:20:17;;;;;;;1.90;1.53;;;;;;;;;;5014937;28;20755;-88
2024/03/19 06:22:43;;;;;;;3.30;1.90;;;;;;;;;;5014266;28;20478;-79
2024/03/19 06:25:10;;;;;;;2.87;2.47;;;;;;;;;;5013993;28;20398;-88
2024/03/19 06:27:36;;;;;;;2.40;2.20;;;;;;;;;;5013058;28;20433;-76
2024/03/19 06:30:02;;;;;;;2.17;1.33;;;;;;;;;;5014092;28;20447;-76
2024/03/19 06:32:28;;;;;;;3.13;2.53;;;;;;;;;;5014018;28;20406;-76
2024/03/19 06:34:54;;;;;;;4.10;3.13;;;;;;;;;;5013036;28;21001;-80
2024/03/19 06:37:20;;;;;;;3.67;2.47;;;;;;;;;;5014054;28;20404;-78
2024/03/19 06:39:46;;;;;;;3.80;2.57;;;;;;;;;;5013608;28;20418;-78
2024/03/19 06:42:12;;;;;;;3.47;2.40;;;;;;;;;;5013697;28;20410;-80
2024/03/19 06:44:38;;;;;;;4.50;1.93;;;;;;;;;;5013901;28;20421;-78
2024/03/19 06:47:04;;;;;;;4.93;2.20;;;;;;;;;;5013685;28;20442;-83
2024/03/19 06:49:30;;;;;;;3.43;2.10;;;;;;;;;;5013757;28;20517;-78
2024/03/19 06:51:56;;;;;;;5.13;1.63;;;;;;;;;;5013706;28;20428;-78
2024/03/19 06:54:21;;;;;;;8.63;2.70;;;;;;;;;;5013253;28;20406;-78
2024/03/19 06:56:48;;;;;;;2.90;2.60;;;;;;;;;;5012288;28;20413;-78
2024/03/19 06:59:15;;;;;;;2.47;2.27;;;;;;;;;;5013545;28;20411;-79
2024/03/19 07:01:41;;;;;;;3.83;2.30;;;;;;;;;;5013577;28;20458;-81
2024/03/19 07:04:07;;;;;;;2.83;2.03;;;;;;;;;;5013524;28;20512;-77
2024/03/19 07:06:32;;;;;;;3.67;3.20;;;;;;;;;;5013494;28;20500;-79
2024/03/19 07:08:59;;;;;;;5.10;2.40;;;;;;;;;;5012902;28;20415;-78
2024/03/19 07:11:25;;;;;;;3.37;2.10;;;;;;;;;;5013390;28;20417;-77
2024/03/19 07:13:51;;;;;;;5.10;2.83;;;;;;;;;;5013341;28;20414;-78
2024/03/19 07:16:19;;;;;;;3.53;2.60;;;;;;;;;;5012195;28;20437;-77
2024/03/19 07:18:45;;;;;;;6.13;2.30;;;;;;;;;;5013223;28;20406;-78
2024/03/19 07:21:12;;;;;;;3.37;1.80;;;;;;;;;;5013332;28;20914;-77
2024/03/19 07:23:37;;;;;;;4.37;2.17;;;;;;;;;;5012641;28;20524;-78
2024/03/19 07:26:03;;;;;;;5.93;2.60;;;;;;;;;;5013227;28;20957;-77
2024/03/19 07:28:30;;;;;;;4.27;3.87;;;;;;;;;;5012989;28;20413;-80
2024/03/19 07:30:57;;;;;;;4.03;2.87;;;;;;;;;;5013113;28;20405;-77
2024/03/19 07:33:23;;;;;;;2.90;2.50;;;;;;;;;;5013075;28;20473;-76
2024/03/19 07:35:49;;;;;;;3.20;1.60;;;;;;;;;;5013083;28;20410;-77
2024/03/19 07:38:15;;;;;;;3.37;2.03;;;;;;;;;;5012664;28;20417;-77
2024/03/19 07:40:41;;;;;;;4.70;2.63;;;;;;;;;;5012987;28;20411;-77
2024/03/19 07:43:07;;;;;;;4.43;2.90;;;;;;;;;;5011861;28;20554;-77
2024/03/19 07:45:33;;;;;;;2.37;2.13;;;;;;;;;;5013262;28;20489;-77
2024/03/19 07:48:04;;;;;;;3.77;2.57;;;;;;;;;;5016721;28;20418;-77
2024/03/19 07:50:32;;;;;;;4.57;2.93;;;;;;;;;;5017306;28;20455;-78
2024/03/19 07:52:58;;;;;;;3.77;2.47;;;;;;;;;;5016717;28;20781;-77
2024/03/19 07:55:24;;;;;;;5.33;2.80;;;;;;;;;;5016816;28;20421;-81
2024/03/19 07:57:50;;;;;;;6.20;2.10;;;;;;;;;;5016749;28;20414;-77
2024/03/19 08:00:16;;;;;;;6.10;2.50;;;;;;;;;;5016638;28;20903;-80
2024/03/19 08:02:43;;;;;;;3.83;3.00;;;;;;;;;;5016624;28;20464;-77
2024/03/19 08:05:09;;;;;;;9.77;5.43;;;;;;;;;;5016212;28;20434;-81
2024/03/19 08:07:39;;;;;;;5.67;3.00;;;;;;;;;;5016558;28;20433;-77
2024/03/19 08:10:06;;;;;;;4.93;2.60;;;;;;;;;;5016320;28;20433;-77
2024/03/19 08:12:33;;;;;;;4.40;2.73;;;;;;;;;;5016605;28;20486;-77
2024/03/19 08:15:02;;;;;;;4.90;2.50;;;;;;;;;;5016572;28;20442;-80
2024/03/19 08:17:28;;;;;;;2.87;2.20;;;;;;;;;;5016403;28;20413;-78
2024/03/19 08:19:54;;;;;;;5.00;2.70;;;;;;;;;;5016450;28;20725;-77
2024/03/19 08:22:20;;;;;;;3.50;2.10;;;;;;;;;;5016069;28;20562;-79
2024/03/19 08:24:49;;;;;;;3.57;2.07;;;;;;;;;;5015922;28;20514;-78
2024/03/19 08:27:15;;;;;;;5.60;2.60;;;;;;;;;;5016056;28;20408;-78
2024/03/19 08:29:41;;;;;;;3.30;2.53;;;;;;;;;;5016104;28;20503;-78
2024/03/19 08:32:08;;;;;;;3.10;2.20;;;;;;;;;;5016192;28;20497;-78
2024/03/19 08:34:34;;;;;;;3.50;2.10;;;;;;;;;;5016095;28;20546;-78
2024/03/19 08:36:59;;;;;;;3.27;1.80;;;;;;;;;;5014712;28;20487;-78
2024/03/19 08:39:26;;;;;;;3.00;1.97;;;;;;;;;;5015192;28;20423;-85
2024/03/19 08:41:53;;;;;;;5.00;3.00;;;;;;;;;;5016030;28;20438;-80
2024/03/19 08:44:19;;;;;;;6.80;2.83;;;;;;;;;;5016117;28;20472;-82
2024/03/19 08:46:45;;;;;;;3.30;2.30;;;;;;;;;;5015976;28;20426;-80
2024/03/19 08:49:11;;;;;;;3.67;2.13;;;;;;;;;;5014872;28;20423;-81
2024/03/19 08:51:37;;;;;;;7.27;2.93;;;;;;;;;;5004887;28;20507;-78
2024/03/19 08:54:04;;;;;;;4.17;2.63;;;;;;;;;;5012219;28;20428;-79
2024/03/19 08:56:32;;;;;;;2.63;2.43;;;;;;;;;;5015220;28;20455;-79
2024/03/19 08:58:58;;;;;;;3.90;2.90;;;;;;;;;;5014140;28;20404;-86
2024/03/19 09:01:24;;;;;;;4.87;3.30;;;;;;;;;;5014184;28;20425;-79
2024/03/19 09:03:51;;;;;;;3.63;2.80;;;;;;;;;;5015084;28;20989;-79
2024/03/19 09:06:17;;;;;;;3.03;2.10;;;;;;;;;;5015202;28;20467;-81
2024/03/19 09:08:43;;;;;;;4.70;2.33;;;;;;;;;;5014779;28;20419;-82
2024/03/19 09:11:09;;;;;;;4.27;2.40;;;;;;;;;;5015024;28;20486;-78
2024/03/19 09:13:35;;;;;;;6.13;3.73;;;;;;;;;;5015008;28;20732;-78
2024/03/19 09:16:01;;;;;;;4.10;1.93;;;;;;;;;;5014981;28;20400;-79
2024/03/19 09:18:27;;;;;;;3.20;2.30;;;;;;;;;;5012511;28;21478;-79
2024/03/19 09:20:53;;;;;;;4.40;2.90;;;;;;;;;;5014728;28;20423;-78
2024/03/19 09:23:19;;;;;;;4.33;3.17;;;;;;;;;;5014341;28;20869;-78
2024/03/19 09:25:45;;;;;;;8.07;2.67;;;;;;;;;;5013050;28;20418;-80
2024/03/19 09:28:11;;;;;;;5.20;2.70;;;;;;;;;;5014094;28;20425;-82
2024/03/19 09:30:37;;;;;;;6.00;2.87;;;;;;;;;;5012521;28;20419;-82
2024/03/19 09:33:04;;;;;;;4.10;2.67;;;;;;;;;;5013841;28;20416;-83
2024/03/19 09:35:30;;;;;;;3.00;2.07;;;;;;;;;;5013975;28;20472;-82
2024/03/19 09:37:57;;;;;;;4.90;2.20;;;;;;;;;;5011439;28;20921;-86
2024/03/19 09:40:23;;;;;;;3.37;2.77;;;;;;;;;;5014085;28;20914;-84
2024/03/19 09:42:49;;;;;;;14.50;3.70;;;;;;;;;;5014808;28;20511;-82
2024/03/19 09:45:20;;;;;;;6.40;2.93;;;;;;;;;;5014055;28;20417;-79
2024/03/19 09:47:46;;;;;;;6.43;4.03;;;;;;;;;;5014321;28;20449;-81
2024/03/19 09:50:15;;;;;;;2.90;2.20;;;;;;;;;;5014191;28;20898;-80
2024/03/19 09:52:41;;;;;;;4.03;2.50;;;;;;;;;;5013727;28;20456;-80
2024/03/19 09:55:14;;;;;;;6.80;3.50;;;;;;;;;;5014126;28;20442;-82
2024/03/19 09:57:42;;;;;;;5.00;3.30;;;;;;;;;;5014222;28;20774;-81
2024/03/19 10:00:16;;;;;;;4.93;3.00;;;;;;;;;;5012633;28;20983;-85
2024/03/19 10:02:42;;;;;;;4.40;2.47;;;;;;;;;;5013606;28;20473;-81
2024/03/19 10:05:09;;;;;;;6.00;3.40;;;;;;;;;;5013964;28;20423;-83
2024/03/19 10:07:35;;;;;;;4.63;2.93;;;;;;;;;;5013569;28;20503;-83
2024/03/19 10:10:01;;;;;;;3.87;2.20;;;;;;;;;;5017064;28;20473;-82
2024/03/19 10:12:31;;;;;;;3.07;2.03;;;;;;;;;;5023054;28;20511;-84
2024/03/19 10:14:57;;;;;;;5.27;3.07;;;;;;;;;;5013824;28;20445;-84
2024/03/19 10:17:23;;;;;;;4.40;3.13;;;;;;;;;;5013872;28;20464;-83
2024/03/19 10:19:51;;;;;;;5.43;4.23;;;;;;;;;;5012498;28;20617;-83
2024/03/19 10:22:17;;;;;;;5.07;3.60;;;;;;;;;;5013401;28;20213;-82
2024/03/19 10:24:46;;;;;;;3.40;2.83;;;;;;;;;;5013324;28;20988;-81
2024/03/19 10:27:15;;;;;;;4.60;3.03;;;;;;;;;;5013674;28;20553;-83
2024/03/19 10:29:44;;;;;;;5.43;2.83;;;;;;;;;;5013524;28;20429;-83
2024/03/19 10:32:10;;;;;;;6.10;3.60;;;;;;;;;;5011115;28;20433;-84
2024/03/19 10:34:36;;;;;;;4.60;3.40;;;;;;;;;;4993939;28;20439;-83
2024/03/19 10:37:02;;;;;;;7.70;4.80;;;;;;;;;;4991237;28;20891;-81
2024/03/19 10:39:28;;;;;;;4.63;3.80;;;;;;;;;;4993866;28;20418;-84
2024/03/19 10:41:56;;;;;;;5.00;3.50;;;;;;;;;;4994084;28;20409;-83
2024/03/19 10:44:22;;;;;;;4.60;3.40;;;;;;;;;;4993995;28;20523;-84
2024/03/19 10:46:49;;;;;;;7.23;4.30;;;;;;;;;;4992923;28;20439;-82
2024/03/19 10:49:16;;;;;;;7.80;3.43;;;;;;;;;;4993787;28;20503;-81
2024/03/19 10:51:44;;;;;;;6.53;4.50;;;;;;;;;;4992218;28;20506;-85
2024/03/19 10:54:12;;;;;;;6.43;4.10;;;;;;;;;;4992489;28;20419;-81
2024/03/19 10:56:37;;;;;;;5.03;3.40;;;;;;;;;;4993569;28;20420;-83
2024/03/19 10:59:04;;;;;;;8.80;3.93;;;;;;;;;;4993829;28;20435;-85
2024/03/19 11:01:29;;;;;;;6.30;3.37;;;;;;;;;;4993735;28;20412;-82
2024/03/19 11:03:55;;;;;;;5.67;4.40;;;;;;;;;;4993796;28;20532;-82
2024/03/19 11:06:22;;;;;;;8.30;5.40;;;;;;;;;;4993705;28;20500;-83
2024/03/19 11:08:52;;;;;;;6.57;4.70;;;;;;;;;;4993314;28;20413;-85
2024/03/19 11:11:18;;;;;;;7.83;4.73;;;;;;;;;;4993587;28;20490;-86
2024/03/19 11:13:50;;;;;;;7.30;4.43;;;;;;;;;;4993847;28;20421;-85
2024/03/19 11:16:16;;;;;;;5.97;4.00;;;;;;;;;;4993717;28;20412;-85
2024/03/19 11:18:45;;;;;;;7.13;4.40;;;;;;;;;;4998962;28;20435;-81
2024/03/19 11:21:20;;;;;;;7.30;4.03;;;;;;;;;;5015331;28;20972;-85
2024/03/19 11:23:46;;;;;;;6.73;4.77;;;;;;;;;;5019361;28;20475;-84
2024/03/19 11:26:14;;;;;;;7.10;5.00;;;;;;;;;;5019952;28;20418;-85
2024/03/19 11:28:41;;;;;;;5.80;3.80;;;;;;;;;;5019835;28;20418;-84
2024/03/19 11:31:07;;;;;;;11.90;5.87;;;;;;;;;;5019955;28;20442;-85
2024/03/19 11:33:33;;;;;;;9.10;5.37;;;;;;;;;;5018909;28;21002;-87
2024/03/19 11:35:59;;;;;;;9.23;5.40;;;;;;;;;;5018101;28;20426;-80
2024/03/19 11:38:28;;;;;;;7.57;5.40;;;;;;;;;;5018996;28;20428;-84
2024/03/19 11:40:54;;;;;;;8.87;5.50;;;;;;;;;;5019486;28;20430;-83
2024/03/19 11:43:21;;;;;;;8.53;5.50;;;;;;;;;;5019352;28;20572;-84
2024/03/19 11:45:48;;;;;;;8.60;6.27;;;;;;;;;;5018394;28;20468;-86
2024/03/19 11:48:15;;;;;;;10.40;6.00;;;;;;;;;;5019701;28;20824;-88
2024/03/19 11:50:47;;;;;;;12.20;5.63;;;;;;;;;;5019744;28;20412;-80
2024/03/19 11:53:12;;;;;;;7.93;5.13;;;;;;;;;;5019246;28;20401;-82
2024/03/19 11:55:39;;;;;;;9.23;6.00;;;;;;;;;;5019517;28;20452;-83
2024/03/19 11:58:05;;;;;;;7.40;5.57;;;;;;;;;;5019450;28;20171;-86
2024/03/19 12:00:31;;;;;;;8.03;5.83;;;;;;;;;;5018338;28;20891;-83
2024/03/19 12:02:57;;;;;;;7.10;3.67;;;;;;;;;;5019273;28;20465;-83
2024/03/19 12:05:24;;;;;;;9.20;5.87;;;;;;;;;;5019491;28;20440;-86
2024/03/19 12:07:51;;;;;;;10.10;6.50;;;;;;;;;;5019143;28;20464;-88
2024/03/19 12:10:22;;;;;;;7.60;6.17;;;;;;;;;;5019798;28;20427;-83
2024/03/19 12:12:48;;;;;;;7.60;5.10;;;;;;;;;;5020689;28;20416;-89
2024/03/19 12:15:14;;;;;;;9.67;6.20;;;;;;;;;;5020077;28;20472;-86
2024/03/19 12:17:40;;;;;;;10.90;6.90;;;;;;;;;;5019962;28;20416;-85
2024/03/19 12:20:10;;;;;;;11.10;6.70;;;;;;;;;;5020043;28;20420;-84
2024/03/19 12:22:36;;;;;;;11.90;6.40;;;;;;;;;;5019184;28;20503;-84
2024/03/19 12:25:02;;;;;;;7.50;5.43;;;;;;;;;;5019348;28;20425;-87
2024/03/19 12:27:28;;;;;;;8.30;5.60;;;;;;;;;;5020002;28;20418;-89
2024/03/19 12:29:54;;;;;;;10.37;7.33;;;;;;;;;;5020850;28;20453;-84
2024/03/19 12:32:36;;;;;;;8.93;6.70;;;;;;;;;;5018781;28;20286;-89
2024/03/19 12:35:13;;;;;;;10.33;7.17;;;;;;;;;;5016902;28;20977;-87
2024/03/19 12:37:38;;;;;;;7.20;4.90;;;;;;;;;;5016543;28;20812;-88
2024/03/19 12:40:09;;;;;;;12.67;7.53;;;;;;;;;;5016465;28;20430;-89
2024/03/19 12:42:35;;;;;;;10.70;7.90;;;;;;;;;;5014350;28;20249;-89
2024/03/19 12:45:01;;;;;;;10.53;7.13;;;;;;;;;;5016374;28;20414;-87
2024/03/19 12:47:27;;;;;;;9.40;7.00;;;;;;;;;;5016086;28;20401;-88
2024/03/19 12:49:53;;;;;;;8.33;7.13;;;;;;;;;;5016588;28;20453;-88
2024/03/19 12:52:21;;;;;;;10.37;7.67;;;;;;;;;;5016408;28;20422;-89
2024/03/19 12:54:47;;;;;;;10.33;7.50;;;;;;;;;;5016336;28;20444;-88
2024/03/19 12:57:13;;;;;;;13.00;8.70;;;;;;;;;;5016146;28;20491;-90
2024/03/19 12:59:39;;;;;;;10.40;7.30;;;;;;;;;;5016795;28;20432;-88
2024/03/19 13:02:06;;;;;;;10.30;7.97;;;;;;;;;;5016514;28;20416;-90
2024/03/19 13:04:32;;;;;;;10.70;7.47;;;;;;;;;;5016282;28;20571;-89
2024/03/19 13:06:58;;;;;;;12.57;8.60;;;;;;;;;;5016686;28;20441;-90
2024/03/19 13:09:24;;;;;;;9.70;7.47;;;;;;;;;;5016202;28;20421;-88
2024/03/19 13:11:50;;;;;;;11.50;8.13;;;;;;;;;;5016166;28;20174;-91
2024/03/19 13:14:16;;;;;;;11.17;8.30;;;;;;;;;;5016708;28;20417;-90
2024/03/19 13:16:42;;;;;;;9.37;7.77;;;;;;;;;;5016707;28;20426;-91
2024/03/19 13:19:08;;;;;;;10.70;8.10;;;;;;;;;;5015888;28;20209;-88
2024/03/19 13:21:34;;;;;;;13.47;7.93;;;;;;;;;;5014933;28;20807;-81
2024/03/19 13:24:00;;;;;;;9.10;6.27;;;;;;;;;;5016141;28;20534;-90
2024/03/19 13:26:26;;;;;;;9.60;7.43;;;;;;;;;;5015196;28;20236;-91
2024/03/19 13:28:52;;;;;;;13.10;7.27;;;;;;;;;;5015737;28;20529;-91
2024/03/19 13:31:18;;;;;;;9.60;6.90;;;;;;;;;;5017017;28;20487;-89
2024/03/19 13:33:45;;;;;;;10.20;7.43;;;;;;;;;;5016040;28;20447;-85
2024/03/19 13:36:10;;;;;;;10.07;7.03;;;;;;;;;;5016853;28;20408;-86
2024/03/19 13:38:38;;;;;;;10.33;8.13;;;;;;;;;;5016238;28;20178;-89
2024/03/19 13:41:04;;;;;;;12.63;8.50;;;;;;;;;;5016396;28;20430;-87
2024/03/19 13:43:30;;;;;;;9.57;7.33;;;;;;;;;;5017354;28;20472;-89
2024/03/19 13:46:03;;;;;;;13.93;7.87;;;;;;;;;;5014996;28;20419;-90
2024/03/19 13:48:29;;;;;;;13.23;8.30;;;;;;;;;;5015611;28;20501;-90
2024/03/19 13:50:55;;;;;;;10.10;7.00;;;;;;;;;;5015421;28;20414;-90
2024/03/19 13:53:21;;;;;;;10.93;8.03;;;;;;;;;;5015396;28;20955;-90
2024/03/19 13:55:47;;;;;;;9.60;6.40;;;;;;;;;;5015862;28;20774;-90
2024/03/19 13:58:13;;;;;;;11.20;6.80;;;;;;;;;;5014954;28;20447;-81
2024/03/19 14:00:41;;;;;;;10.30;7.17;;;;;;;;;;5014459;28;20544;-82
2024/03/19 14:03:11;;;;;;;10.33;7.40;;;;;;;;;;5014263;28;20564;-80
2024/03/19 14:05:38;;;;;;;8.73;6.30;;;;;;;;;;5013223;28;20916;-81
2024/03/19 14:08:04;;;;;;;8.93;6.93;;;;;;;;;;5014009;28;20902;-81
2024/03/19 14:10:30;;;;;;;11.07;7.73;;;;;;;;;;5013018;28;20426;-80
2024/03/19 14:12:57;;;;;;;7.13;5.70;;;;;;;;;;5014254;28;20777;-80
2024/03/19 14:15:25;;;;;;;9.67;6.30;;;;;;;;;;5012927;28;20958;-80
2024/03/19 14:17:51;;;;;;;10.07;6.33;;;;;;;;;;5014206;28;20935;-80
2024/03/19 14:20:17;;;;;;;9.23;6.90;;;;;;;;;;5013985;28;20418;-80
2024/03/19 14:22:43;;;;;;;9.50;7.40;;;;;;;;;;5013481;28;20488;-81
2024/03/19 14:25:09;;;;;;;10.27;7.00;;;;;;;;;;5014745;28;20445;-89
2024/03/19 14:27:35;;;;;;;12.80;7.63;;;;;;;;;;5014981;28;20431;-87
2024/03/19 14:30:00;;;;;;;8.67;6.27;;;;;;;;;;5015381;28;20910;-87
2024/03/19 14:32:27;;;;;;;17.20;8.70;;;;;;;;;;5014782;28;20180;-89
2024/03/19 14:34:53;;;;;;;11.80;6.53;;;;;;;;;;5015096;28;20409;-88
2024/03/19 14:37:19;;;;;;;9.03;8.10;;;;;;;;;;5014490;28;20429;-88